createdAt,value
2022-09-15T00:02:18.444Z,16.70
2022-09-15T00:04:54.293Z,16.71
2022-09-15T00:07:31.505Z,16.71
2022-09-15T00:10:10.390Z,16.73
2022-09-15T00:12:46.235Z,16.75
2022-09-15T00:15:22.969Z,16.75
2022-09-15T00:17:58.965Z,16.73
2022-09-15T00:20:34.773Z,16.73
2022-09-15T00:23:11.246Z,16.72
2022-09-15T00:25:53.483Z,16.73
2022-09-15T00:28:29.703Z,16.72
2022-09-15T00:31:10.912Z,16.72
2022-09-15T00:33:49.607Z,16.70
2022-09-15T00:36:27.412Z,16.72
2022-09-15T00:39:03.604Z,16.71
2022-09-15T00:41:41.661Z,16.71
2022-09-15T00:45:05.292Z,16.70
2022-09-15T00:47:43.128Z,16.71
2022-09-15T00:50:23.612Z,16.71
2022-09-15T00:53:04.922Z,16.72
2022-09-15T00:55:47.541Z,16.72
2022-09-15T00:58:30.429Z,16.71
2022-09-15T01:01:09.603Z,16.73
2022-09-15T01:03:46.578Z,16.72
2022-09-15T01:06:32.876Z,16.70
2022-09-15T01:09:16.706Z,16.68
2022-09-15T01:11:52.872Z,16.66
2022-09-15T01:14:28.896Z,16.66
2022-09-15T01:17:22.670Z,16.66
2022-09-15T01:21:09.769Z,16.66
2022-09-15T01:24:36.897Z,16.66
2022-09-15T01:27:42.665Z,16.65
2022-09-15T01:30:23.098Z,16.65
2022-09-15T01:33:32.099Z,16.65
2022-09-15T01:36:19.414Z,16.65
2022-09-15T01:39:05.300Z,16.64
2022-09-15T01:41:49.406Z,16.63
2022-09-15T01:44:33.219Z,16.64
2022-09-15T01:47:14.772Z,16.64
2022-09-15T01:49:57.731Z,16.64
2022-09-15T01:52:35.299Z,16.66
2022-09-15T01:55:22.507Z,16.66
2022-09-15T01:58:00.388Z,16.66
2022-09-15T02:00:42.946Z,16.67
2022-09-15T02:03:29.987Z,16.69
2022-09-15T02:06:15.908Z,16.69
2022-09-15T02:09:02.974Z,16.69
2022-09-15T02:11:48.065Z,16.67
2022-09-15T02:14:39.183Z,16.64
2022-09-15T02:17:20.686Z,16.61
2022-09-15T02:20:11.509Z,16.59
2022-09-15T02:22:54.715Z,16.59
2022-09-15T02:25:37.783Z,16.59
2022-09-15T02:28:18.420Z,16.60
2022-09-15T02:30:58.805Z,16.62
2022-09-15T02:33:41.251Z,16.63
2022-09-15T02:36:20.876Z,16.64
2022-09-15T02:39:06.092Z,16.66
2022-09-15T02:41:43.096Z,16.69
2022-09-15T02:44:19.216Z,16.70
2022-09-15T02:46:55.653Z,16.72
2022-09-15T02:49:31.762Z,16.71
2022-09-15T02:52:08.458Z,16.71
2022-09-15T02:54:44.260Z,16.72
2022-09-15T02:57:21.153Z,16.73
2022-09-15T03:00:16.125Z,16.73
2022-09-15T03:02:55.319Z,16.74
2022-09-15T03:05:32.825Z,16.74
2022-09-15T03:08:09.065Z,16.72
2022-09-15T03:10:45.362Z,16.73
2022-09-15T03:13:21.380Z,16.74
2022-09-15T03:15:57.155Z,16.74
2022-09-15T03:18:33.213Z,16.74
2022-09-15T03:21:13.204Z,16.75
2022-09-15T03:23:50.283Z,16.74
2022-09-15T03:26:26.181Z,16.74
2022-09-15T03:29:02.452Z,16.74
2022-09-15T03:31:38.293Z,16.75
2022-09-15T03:34:14.206Z,16.76
2022-09-15T03:36:49.939Z,16.75
2022-09-15T03:39:25.944Z,16.76
2022-09-15T03:42:01.724Z,16.76
2022-09-15T03:44:37.782Z,16.77
2022-09-15T03:47:13.768Z,16.78
2022-09-15T03:49:49.644Z,16.79
2022-09-15T03:52:26.288Z,16.80
2022-09-15T03:55:02.124Z,16.80
2022-09-15T03:57:38.076Z,16.81
2022-09-15T04:00:17.664Z,16.79
2022-09-15T04:02:53.595Z,16.79
2022-09-15T04:05:29.543Z,16.78
2022-09-15T04:08:05.871Z,16.78
2022-09-15T04:10:44.113Z,16.76
2022-09-15T04:13:20.060Z,16.74
2022-09-15T04:16:04.284Z,16.72
2022-09-15T04:18:40.767Z,16.70
2022-09-15T04:21:20.386Z,16.69
2022-09-15T04:23:56.660Z,16.67
2022-09-15T04:26:36.694Z,16.65
2022-09-15T04:29:18.899Z,16.65
2022-09-15T04:31:54.966Z,16.66
2022-09-15T04:34:30.865Z,16.66
2022-09-15T04:37:07.589Z,16.66
2022-09-15T04:39:43.573Z,16.69
2022-09-15T04:42:21.034Z,16.70
2022-09-15T04:44:56.803Z,16.72
2022-09-15T04:47:32.797Z,16.75
2022-09-15T04:50:10.125Z,16.77
2022-09-15T04:52:46.017Z,16.80
2022-09-15T04:55:21.980Z,16.81
2022-09-15T04:57:58.825Z,16.84
2022-09-15T05:00:43.269Z,16.89
2022-09-15T05:03:19.656Z,16.96
2022-09-15T05:05:55.628Z,17.04
2022-09-15T05:08:31.426Z,17.10
2022-09-15T05:11:10.306Z,17.17
2022-09-15T05:13:46.721Z,17.21
2022-09-15T05:16:26.668Z,17.25
2022-09-15T05:19:05.780Z,17.28
2022-09-15T05:21:41.852Z,17.31
2022-09-15T05:24:18.324Z,17.37
2022-09-15T05:26:54.070Z,17.44
2022-09-15T05:29:30.214Z,17.49
2022-09-15T05:32:06.821Z,17.55
2022-09-15T05:34:42.819Z,17.60
2022-09-15T05:37:19.879Z,17.66
2022-09-15T05:39:59.603Z,17.70
2022-09-15T05:42:36.930Z,17.77
2022-09-15T05:45:14.349Z,17.84
2022-09-15T05:47:50.715Z,17.91
2022-09-15T05:50:26.722Z,17.95
2022-09-15T05:53:02.706Z,18.00
2022-09-15T05:55:42.519Z,18.01
2022-09-15T05:58:18.511Z,18.05
2022-09-15T06:00:55.153Z,18.05
2022-09-15T06:03:31.359Z,18.08
2022-09-15T06:06:09.609Z,18.07
2022-09-15T06:08:51.853Z,18.07
2022-09-15T06:11:33.792Z,18.08
2022-09-15T06:14:09.816Z,18.11
2022-09-15T06:16:45.958Z,18.15
2022-09-15T06:19:22.118Z,18.18
2022-09-15T06:21:58.062Z,18.22
2022-09-15T06:24:33.970Z,18.27
2022-09-15T06:27:10.282Z,18.30
2022-09-15T06:29:46.100Z,18.34
2022-09-15T06:32:22.110Z,18.36
2022-09-15T06:34:58.067Z,18.38
2022-09-15T06:37:34.130Z,18.38
2022-09-15T06:40:13.326Z,18.40
2022-09-15T06:42:49.416Z,18.41
2022-09-15T06:45:25.229Z,18.44
2022-09-15T06:48:22.868Z,18.47
2022-09-15T06:51:00.695Z,18.49
2022-09-15T06:53:39.159Z,18.52
2022-09-15T06:56:18.216Z,18.52
2022-09-15T06:58:54.625Z,18.52
2022-09-15T07:01:39.998Z,18.55
2022-09-15T07:04:16.148Z,18.57
2022-09-15T07:06:52.347Z,18.57
2022-09-15T07:09:28.381Z,18.55
2022-09-15T07:12:04.768Z,18.52
2022-09-15T07:14:41.086Z,18.51
2022-09-15T07:17:17.241Z,18.51
2022-09-15T07:19:53.292Z,18.49
2022-09-15T07:22:30.364Z,18.39
2022-09-15T07:25:07.449Z,18.17
2022-09-15T07:27:43.864Z,17.93
2022-09-15T07:30:20.557Z,17.71
2022-09-15T07:32:56.434Z,17.48
2022-09-15T07:35:32.692Z,17.28
2022-09-15T07:38:08.478Z,17.20
2022-09-15T07:40:46.209Z,17.12
2022-09-15T07:43:22.165Z,17.00
2022-09-15T07:46:02.194Z,16.84
2022-09-15T07:48:38.368Z,16.72
2022-09-15T07:51:15.322Z,16.59
2022-09-15T07:53:52.802Z,16.48
2022-09-15T07:56:28.845Z,16.38
2022-09-15T07:59:04.657Z,16.31
2022-09-15T08:01:41.590Z,16.25
2022-09-15T08:04:18.021Z,16.23
2022-09-15T08:06:53.841Z,16.19
2022-09-15T08:09:30.132Z,16.18
2022-09-15T08:12:08.120Z,16.17
2022-09-15T08:14:44.081Z,16.15
2022-09-15T08:17:20.142Z,16.16
2022-09-15T08:19:55.925Z,16.18
2022-09-15T08:22:31.849Z,16.22
2022-09-15T08:25:09.362Z,16.30
2022-09-15T08:27:45.910Z,16.40
2022-09-15T08:30:22.702Z,16.48
2022-09-15T08:32:58.744Z,16.54
2022-09-15T08:35:37.054Z,16.61
2022-09-15T08:38:13.553Z,16.72
2022-09-15T08:40:50.506Z,16.82
2022-09-15T08:43:38.228Z,16.94
2022-09-15T08:46:22.529Z,17.03
2022-09-15T08:49:09.719Z,17.06
2022-09-15T08:51:52.016Z,17.12
2022-09-15T08:54:31.543Z,17.20
2022-09-15T08:57:12.297Z,17.32
2022-09-15T08:59:48.252Z,17.45
2022-09-15T09:03:21.168Z,17.64
2022-09-15T09:06:09.444Z,17.92
2022-09-15T09:09:15.276Z,18.17
2022-09-15T09:12:32.425Z,18.41
2022-09-15T09:15:29.562Z,18.60
2022-09-15T09:18:50.311Z,18.78
2022-09-15T09:21:32.507Z,18.98
2022-09-15T09:24:16.456Z,19.08
2022-09-15T09:26:56.503Z,19.17
2022-09-15T09:29:40.593Z,19.25
2022-09-15T09:32:24.797Z,19.28
2022-09-15T09:35:14.646Z,19.24
2022-09-15T09:37:52.391Z,19.16
2022-09-15T09:40:30.971Z,19.12
2022-09-15T09:43:07.634Z,19.16
2022-09-15T09:45:44.140Z,19.20
2022-09-15T09:48:26.332Z,19.28
2022-09-15T09:51:02.882Z,19.45
2022-09-15T09:53:39.134Z,19.60
2022-09-15T09:56:27.957Z,19.82
2022-09-15T09:59:05.145Z,19.97
2022-09-15T10:01:41.521Z,20.11
2022-09-15T10:04:23.885Z,20.20
2022-09-15T10:07:00.638Z,20.28
2022-09-15T10:09:37.905Z,20.29
2022-09-15T10:12:27.705Z,20.33
2022-09-15T10:15:09.744Z,20.26
2022-09-15T10:17:50.343Z,20.18
2022-09-15T10:20:40.064Z,20.07
2022-09-15T10:23:32.164Z,20.02
2022-09-15T10:26:34.836Z,19.95
2022-09-15T10:29:27.239Z,19.87
2022-09-15T10:32:26.082Z,19.83
2022-09-15T10:35:23.941Z,19.83
2022-09-15T10:38:15.886Z,19.85
2022-09-15T10:41:03.257Z,19.84
2022-09-15T10:43:58.204Z,19.84
2022-09-15T10:46:47.245Z,19.86
2022-09-15T10:49:49.501Z,19.94
2022-09-15T10:52:45.185Z,19.98
2022-09-15T10:55:52.940Z,20.04
2022-09-15T10:59:01.031Z,20.09
2022-09-15T11:02:21.561Z,20.14
2022-09-15T11:05:23.692Z,20.09
2022-09-15T11:08:27.190Z,20.10
2022-09-15T11:11:14.966Z,20.16
2022-09-15T11:14:23.321Z,20.28
2022-09-15T11:17:24.545Z,20.47
2022-09-15T11:20:41.297Z,20.70
2022-09-15T11:23:27.098Z,20.94
2022-09-15T11:26:11.182Z,21.06
2022-09-15T11:28:53.823Z,21.05
2022-09-15T11:31:36.233Z,21.06
2022-09-15T11:34:24.201Z,21.01
2022-09-15T11:37:09.258Z,20.95
2022-09-15T11:39:54.669Z,20.84
2022-09-15T11:42:41.291Z,20.81
2022-09-15T11:45:27.913Z,20.79
2022-09-15T11:48:16.055Z,20.75
2022-09-15T11:50:58.220Z,20.70
2022-09-15T11:53:48.630Z,20.71
2022-09-15T11:56:34.885Z,20.77
2022-09-15T11:59:27.176Z,20.91
2022-09-15T12:02:20.597Z,21.03
2022-09-15T12:05:15.024Z,21.13
2022-09-15T12:07:59.493Z,21.29
2022-09-15T12:10:42.349Z,21.42
2022-09-15T12:13:22.722Z,21.56
2022-09-15T12:16:02.188Z,21.65
2022-09-15T12:18:46.908Z,21.64
2022-09-15T12:21:35.336Z,21.61
2022-09-15T12:24:25.038Z,21.60
2022-09-15T12:27:03.763Z,21.58
2022-09-15T12:29:50.861Z,21.52
2022-09-15T12:32:30.713Z,21.43
2022-09-15T12:35:34.505Z,21.42
2022-09-15T12:38:17.172Z,21.43
2022-09-15T12:41:02.569Z,21.40
2022-09-15T12:43:38.530Z,21.36
2022-09-15T12:46:22.102Z,21.31
2022-09-15T12:49:03.758Z,21.24
2022-09-15T12:51:39.782Z,21.18
2022-09-15T12:54:28.324Z,21.16
2022-09-15T12:57:06.168Z,21.09
2022-09-15T12:59:42.041Z,21.08
2022-09-15T13:02:51.366Z,21.02
2022-09-15T13:06:24.013Z,20.92
2022-09-15T13:09:29.691Z,20.87
2022-09-15T13:12:08.971Z,20.88
2022-09-15T13:14:50.184Z,20.88
2022-09-15T13:17:29.545Z,20.86
2022-09-15T13:20:23.146Z,20.81
2022-09-15T13:23:00.747Z,20.77
2022-09-15T13:25:38.717Z,20.71
2022-09-15T13:28:19.004Z,20.62
2022-09-15T13:31:16.909Z,20.60
2022-09-15T13:38:30.902Z,20.50
2022-09-15T13:41:52.441Z,20.41
2022-09-15T13:45:26.410Z,20.35
2022-09-15T13:48:42.563Z,20.28
2022-09-15T13:51:28.774Z,20.20
2022-09-15T13:54:15.923Z,20.08
2022-09-15T13:56:53.319Z,20.00
2022-09-15T13:59:34.857Z,19.92
2022-09-15T14:02:13.170Z,19.84
2022-09-15T14:04:54.029Z,19.85
2022-09-15T14:07:32.674Z,19.85
2022-09-15T14:10:19.237Z,19.92
2022-09-15T14:12:59.972Z,20.00
2022-09-15T14:15:36.438Z,20.06
2022-09-15T14:18:24.266Z,20.00
2022-09-15T14:21:19.608Z,19.99
2022-09-15T14:23:58.893Z,20.00
2022-09-15T14:26:38.158Z,19.98
2022-09-15T14:29:24.542Z,19.94
2022-09-15T14:32:07.445Z,19.84
2022-09-15T14:34:44.715Z,19.72
2022-09-15T14:37:27.629Z,19.66
2022-09-15T14:40:21.108Z,19.58
2022-09-15T14:42:58.038Z,19.51
2022-09-15T14:45:57.546Z,19.47
2022-09-15T14:48:34.312Z,19.48
2022-09-15T14:51:22.763Z,19.45
2022-09-15T14:54:03.193Z,19.41
2022-09-15T14:56:44.147Z,19.42
2022-09-15T14:59:28.734Z,19.45
2022-09-15T15:02:27.235Z,19.42
2022-09-15T15:05:10.984Z,19.38
2022-09-15T15:07:47.520Z,19.29
2022-09-15T15:10:35.639Z,19.25
2022-09-15T15:13:18.262Z,19.22
2022-09-15T15:15:54.549Z,19.17
2022-09-15T15:18:43.732Z,19.10
2022-09-15T15:21:44.521Z,19.06
2022-09-15T15:24:27.051Z,19.00
2022-09-15T15:27:43.807Z,18.99
2022-09-15T15:30:50.926Z,18.93
2022-09-15T15:33:31.123Z,18.92
2022-09-15T15:36:11.918Z,18.85
2022-09-15T15:38:56.911Z,18.82
2022-09-15T15:41:37.913Z,18.82
2022-09-15T15:44:32.144Z,18.80
2022-09-15T15:47:30.403Z,18.75
2022-09-15T15:50:16.429Z,18.72
2022-09-15T15:52:53.798Z,18.68
2022-09-15T15:55:40.655Z,18.60
2022-09-15T15:58:18.862Z,18.55
2022-09-15T16:00:57.612Z,18.51
2022-09-15T16:03:33.793Z,18.51
2022-09-15T16:06:12.646Z,18.49
2022-09-15T16:08:49.402Z,18.44
2022-09-15T16:11:25.258Z,18.37
2022-09-15T16:14:01.413Z,18.23
2022-09-15T16:16:41.005Z,18.12
2022-09-15T16:19:17.349Z,18.04
2022-09-15T16:21:55.638Z,17.98
2022-09-15T16:24:32.617Z,17.89
2022-09-15T16:27:14.952Z,17.81
2022-09-15T16:29:51.256Z,17.78
2022-09-15T16:32:28.783Z,17.74
2022-09-15T16:35:11.273Z,17.72
2022-09-15T16:37:47.110Z,17.69
2022-09-15T16:40:24.218Z,17.64
2022-09-15T16:43:02.486Z,17.62
2022-09-15T16:45:43.130Z,17.60
2022-09-15T16:48:20.069Z,17.53
2022-09-15T16:51:20.523Z,17.46
2022-09-15T16:53:52.417Z,17.40
2022-09-15T16:56:29.129Z,17.39
2022-09-15T16:59:05.482Z,17.36
2022-09-15T17:01:41.741Z,17.34
2022-09-15T17:04:20.197Z,17.32
2022-09-15T17:06:56.283Z,17.30
2022-09-15T17:09:32.180Z,17.27
2022-09-15T17:14:49.898Z,17.23
2022-09-15T17:17:31.615Z,17.20
2022-09-15T17:20:07.172Z,17.18
2022-09-15T17:22:43.059Z,17.14
2022-09-15T17:25:35.015Z,17.13
2022-09-15T17:28:11.032Z,17.11
2022-09-15T17:30:46.916Z,17.06
2022-09-15T17:33:24.648Z,17.02
2022-09-15T17:36:02.755Z,16.97
2022-09-15T17:38:41.195Z,16.94
2022-09-15T17:41:22.423Z,16.92
2022-09-15T17:43:59.592Z,16.88
2022-09-15T17:46:35.668Z,16.85
2022-09-15T17:49:12.029Z,16.83
2022-09-15T17:51:48.038Z,16.79
2022-09-15T17:54:24.229Z,16.74
2022-09-15T17:57:00.130Z,16.71
2022-09-15T17:59:36.060Z,16.70
2022-09-15T18:02:21.874Z,16.69
2022-09-15T18:04:58.437Z,16.68
2022-09-15T18:07:35.027Z,16.63
2022-09-15T18:10:12.914Z,16.60
2022-09-15T18:12:52.236Z,16.57
2022-09-15T18:15:35.335Z,16.54
2022-09-15T18:18:18.791Z,16.49
2022-09-15T18:20:58.002Z,16.45
2022-09-15T18:23:33.852Z,16.42
2022-09-15T18:26:09.959Z,16.39
2022-09-15T18:28:45.853Z,16.34
2022-09-15T18:31:22.132Z,16.30
2022-09-15T18:33:58.393Z,16.26
2022-09-15T18:36:34.580Z,16.21
2022-09-15T18:39:12.012Z,16.15
2022-09-15T18:44:30.497Z,16.05
2022-09-15T18:47:06.517Z,16.01
2022-09-15T18:49:42.517Z,15.95
2022-09-15T18:52:18.677Z,15.89
2022-09-15T18:54:54.847Z,15.82
2022-09-15T18:57:36.970Z,15.75
2022-09-15T19:00:19.882Z,15.68
2022-09-15T19:03:01.115Z,15.63
2022-09-15T19:05:38.651Z,15.59
2022-09-15T19:08:15.728Z,15.57
2022-09-15T19:11:02.069Z,15.54
2022-09-15T19:13:37.987Z,15.52
2022-09-15T19:16:14.504Z,15.46
2022-09-15T19:18:53.841Z,15.41
2022-09-15T19:21:30.057Z,15.36
2022-09-15T19:24:06.468Z,15.33
2022-09-15T19:26:42.584Z,15.30
2022-09-15T19:29:19.005Z,15.26
2022-09-15T19:31:54.906Z,15.19
2022-09-15T19:34:30.731Z,15.13
2022-09-15T19:37:11.376Z,15.08
2022-09-15T19:39:50.453Z,15.02
2022-09-15T19:42:26.600Z,14.98
2022-09-15T19:45:02.865Z,14.95
2022-09-15T19:47:39.363Z,14.94
2022-09-15T19:50:18.132Z,14.94
2022-09-15T19:52:58.832Z,14.94
2022-09-15T19:55:35.790Z,14.94
2022-09-15T19:58:11.769Z,14.93
2022-09-15T20:00:52.505Z,14.93
2022-09-15T20:08:10.971Z,14.93
2022-09-15T20:10:49.064Z,14.93
2022-09-15T20:13:26.490Z,14.91
2022-09-15T20:16:07.554Z,14.92
2022-09-15T20:18:47.412Z,14.91
2022-09-15T20:21:48.650Z,14.91
2022-09-15T20:24:27.310Z,14.92
2022-09-15T20:27:05.581Z,14.93
2022-09-15T20:29:44.368Z,14.93
2022-09-15T20:32:27.481Z,14.93
2022-09-15T20:35:05.812Z,14.93
2022-09-15T20:37:43.251Z,14.91
2022-09-15T20:40:21.330Z,14.90
2022-09-15T20:42:58.757Z,14.91
2022-09-15T20:45:39.966Z,14.90
2022-09-15T20:48:20.082Z,14.90
2022-09-15T20:51:07.204Z,14.91
2022-09-15T20:53:47.829Z,14.90
2022-09-15T20:56:26.892Z,14.89
2022-09-15T20:59:06.396Z,14.88
2022-09-15T21:01:45.333Z,14.86
2022-09-15T21:04:23.024Z,14.85
2022-09-15T21:06:59.682Z,14.85
2022-09-15T21:09:36.649Z,14.84
2022-09-15T21:12:13.918Z,14.84
2022-09-15T21:14:50.577Z,14.84
2022-09-15T21:17:29.183Z,14.83
2022-09-15T21:20:06.522Z,14.84
2022-09-15T21:22:43.328Z,14.85
2022-09-15T21:25:20.001Z,14.85
2022-09-15T21:27:56.352Z,14.85
2022-09-15T21:30:32.902Z,14.85
2022-09-15T21:33:09.462Z,14.83
2022-09-15T21:35:47.535Z,14.82
2022-09-15T21:38:24.205Z,14.81
2022-09-15T21:41:00.740Z,14.79
2022-09-15T21:43:40.288Z,14.77
2022-09-15T21:46:20.112Z,14.75
2022-09-15T21:48:59.092Z,14.75
2022-09-15T21:51:36.394Z,14.75
2022-09-15T21:54:13.837Z,14.74
2022-09-15T21:56:50.620Z,14.73
2022-09-15T21:59:27.503Z,14.73
2022-09-15T22:02:04.030Z,14.72
2022-09-15T22:04:41.093Z,14.72
2022-09-15T22:07:19.551Z,14.73
2022-09-15T22:09:56.347Z,14.72
2022-09-15T22:12:33.042Z,14.71
2022-09-15T22:15:12.411Z,14.71
2022-09-15T22:17:49.050Z,14.70
2022-09-15T22:20:25.967Z,14.69
2022-09-15T22:23:04.773Z,14.69
2022-09-15T22:25:41.239Z,14.68
2022-09-15T22:28:17.615Z,14.69
2022-09-15T22:30:57.378Z,14.69
2022-09-15T22:33:34.943Z,14.69
2022-09-15T22:36:13.998Z,14.68
2022-09-15T22:38:50.772Z,14.66
2022-09-15T22:41:27.488Z,14.64
2022-09-15T22:44:04.770Z,14.62
2022-09-15T22:46:41.377Z,14.60
2022-09-15T22:49:18.002Z,14.57
2022-09-15T22:51:54.632Z,14.55
2022-09-15T22:54:31.810Z,14.51
2022-09-15T22:57:08.620Z,14.48
2022-09-15T22:59:45.003Z,14.47
2022-09-15T23:02:20.881Z,14.45
2022-09-15T23:04:56.647Z,14.42
2022-09-15T23:07:32.773Z,14.40
2022-09-15T23:10:10.003Z,14.37
2022-09-15T23:12:45.705Z,14.35
2022-09-15T23:15:21.496Z,14.34
2022-09-15T23:17:56.901Z,14.33
2022-09-15T23:20:33.781Z,14.31
2022-09-15T23:23:10.723Z,14.30
2022-09-15T23:25:47.896Z,14.27
2022-09-15T23:28:24.634Z,14.24
2022-09-15T23:31:03.049Z,14.22
2022-09-15T23:33:39.382Z,14.17
2022-09-15T23:36:19.682Z,14.15
2022-09-15T23:38:56.009Z,14.11
2022-09-15T23:41:32.077Z,14.07
2022-09-15T23:44:09.060Z,14.04
2022-09-15T23:46:45.222Z,14.00
2022-09-15T23:49:21.604Z,13.97
2022-09-15T23:51:57.845Z,13.94
2022-09-15T23:54:34.112Z,13.91
2022-09-15T23:57:11.912Z,13.89
2022-09-15T23:59:48.023Z,13.86
